SOL2904 AYPY-AGGH
Flight info
| Callsign | SOL2904 |
|---|---|
| Flight time | 1h 43m |
| Altitude | 35000 |
| Route | NUPTA1 NUPTA DCT KAPKI B598 PAKMI PAKMI1A |
| Aircraft | A320/M-SDE3FGHIRWY/LB1 |
Departure
| Time | 2026-05-06 20:28 |
|---|---|
| Airport | Port Moresby Jacksons International Airport (AYPY) |
Arrival
| Time | 2026-05-06 22:11 |
|---|---|
| Airport | Honiara International Airport (AGGH) |
| Time | Latitude | Longitude | Altitude | Speed | Heading |
|---|---|---|---|---|---|
| 2026-05-06 20:09 | -9.43872 | 147.21210 | 111 ft | 0 kts | 238° |
| 2026-05-06 20:21 | -9.43863 | 147.21225 | 101 ft | 4 kts | 246° |
| 2026-05-06 20:21 | -9.43854 | 147.21251 | 109 ft | 4 kts | 263° |
| 2026-05-06 20:21 | -9.43854 | 147.21275 | 110 ft | 1 kts | 282° |
| 2026-05-06 20:22 | -9.43855 | 147.21280 | 110 ft | 0 kts | 282° |
| 2026-05-06 20:24 | -9.43846 | 147.21260 | 107 ft | 4 kts | 328° |
| 2026-05-06 20:24 | -9.43812 | 147.21262 | 107 ft | 6 kts | 1° |
| 2026-05-06 20:24 | -9.43756 | 147.21248 | 109 ft | 11 kts | 347° |
| 2026-05-06 20:25 | -9.43682 | 147.21274 | 111 ft | 12 kts | 24° |
| 2026-05-06 20:25 | -9.43597 | 147.21245 | 108 ft | 16 kts | 327° |
| 2026-05-06 20:25 | -9.43500 | 147.21185 | 108 ft | 17 kts | 329° |
| 2026-05-06 20:25 | -9.43393 | 147.21119 | 109 ft | 19 kts | 328° |
| 2026-05-06 20:26 | -9.43276 | 147.21106 | 109 ft | 18 kts | 40° |
| 2026-05-06 20:26 | -9.43206 | 147.21215 | 110 ft | 19 kts | 59° |
| 2026-05-06 20:26 | -9.43136 | 147.21336 | 110 ft | 19 kts | 59° |
| 2026-05-06 20:26 | -9.43163 | 147.21437 | 112 ft | 2 kts | 147° |
| 2026-05-06 20:27 | -9.43179 | 147.21448 | 112 ft | 13 kts | 147° |
| 2026-05-06 20:27 | -9.43480 | 147.21635 | 111 ft | 85 kts | 149° |
| 2026-05-06 20:27 | -9.44153 | 147.22049 | 110 ft | 138 kts | 148° |
| 2026-05-06 20:27 | -9.45094 | 147.22633 | 214 ft | 173 kts | 147° |
| 2026-05-06 20:28 | -9.46115 | 147.23247 | 913 ft | 169 kts | 149° |
| 2026-05-06 20:28 | -9.47119 | 147.23859 | 1585 ft | 168 kts | 148° |
| 2026-05-06 20:28 | -9.48132 | 147.24486 | 2063 ft | 176 kts | 148° |
| 2026-05-06 20:28 | -9.49240 | 147.25175 | 2272 ft | 198 kts | 148° |
| 2026-05-06 20:29 | -9.50476 | 147.25943 | 2482 ft | 219 kts | 148° |
| 2026-05-06 20:29 | -9.51831 | 147.26783 | 2784 ft | 237 kts | 148° |
| 2026-05-06 20:29 | -9.53283 | 147.27681 | 3239 ft | 255 kts | 148° |
| 2026-05-06 20:29 | -9.54839 | 147.28641 | 3848 ft | 265 kts | 148° |
| 2026-05-06 20:30 | -9.56288 | 147.29801 | 4645 ft | 269 kts | 132° |
| 2026-05-06 20:30 | -9.58441 | 147.32954 | 6136 ft | 277 kts | 120° |
| 2026-05-06 20:30 | -9.59426 | 147.34650 | 6835 ft | 281 kts | 120° |
| 2026-05-06 20:31 | -9.60434 | 147.36359 | 7534 ft | 284 kts | 121° |
| 2026-05-06 20:31 | -9.61481 | 147.38071 | 8229 ft | 288 kts | 122° |
| 2026-05-06 20:31 | -9.62556 | 147.39768 | 8943 ft | 290 kts | 123° |
| 2026-05-06 20:31 | -9.63666 | 147.41480 | 9629 ft | 293 kts | 123° |
| 2026-05-06 20:32 | -9.64809 | 147.43217 | 10183 ft | 301 kts | 123° |
| 2026-05-06 20:32 | -9.65938 | 147.45088 | 10305 ft | 322 kts | 113° |
| 2026-05-06 20:32 | -9.66451 | 147.47350 | 10433 ft | 341 kts | 94° |
| 2026-05-06 20:32 | -9.66585 | 147.49815 | 10551 ft | 359 kts | 92° |
| 2026-05-06 20:33 | -9.66704 | 147.52396 | 10672 ft | 375 kts | 92° |
| 2026-05-06 20:33 | -9.66818 | 147.55088 | 10787 ft | 390 kts | 92° |
| 2026-05-06 20:33 | -9.66934 | 147.57878 | 11022 ft | 400 kts | 92° |
| 2026-05-06 20:33 | -9.67055 | 147.60707 | 11445 ft | 404 kts | 92° |
| 2026-05-06 20:34 | -9.67180 | 147.63528 | 11903 ft | 407 kts | 92° |
| 2026-05-06 20:34 | -9.67309 | 147.66398 | 12374 ft | 409 kts | 92° |
| 2026-05-06 20:34 | -9.67438 | 147.69296 | 12850 ft | 411 kts | 92° |
| 2026-05-06 20:34 | -9.67569 | 147.72200 | 13342 ft | 413 kts | 92° |
| 2026-05-06 20:35 | -9.67704 | 147.75121 | 13817 ft | 416 kts | 92° |
| 2026-05-06 20:35 | -9.67840 | 147.78054 | 14221 ft | 418 kts | 92° |
| 2026-05-06 20:35 | -9.67975 | 147.81008 | 14610 ft | 420 kts | 92° |
| 2026-05-06 20:35 | -9.68107 | 147.83974 | 15002 ft | 423 kts | 92° |
| 2026-05-06 20:36 | -9.68237 | 147.86923 | 15382 ft | 425 kts | 92° |
| 2026-05-06 20:36 | -9.68371 | 147.89923 | 15762 ft | 428 kts | 92° |
| 2026-05-06 20:36 | -9.68507 | 147.92944 | 16144 ft | 430 kts | 92° |
| 2026-05-06 20:36 | -9.68645 | 147.95975 | 16508 ft | 432 kts | 92° |
| 2026-05-06 20:37 | -9.68782 | 147.99035 | 16863 ft | 435 kts | 92° |
| 2026-05-06 20:37 | -9.68918 | 148.02106 | 17227 ft | 437 kts | 92° |
| 2026-05-06 20:37 | -9.69055 | 148.05193 | 17588 ft | 440 kts | 92° |
| 2026-05-06 20:37 | -9.69194 | 148.08296 | 17933 ft | 442 kts | 92° |
| 2026-05-06 20:38 | -9.69333 | 148.11414 | 18272 ft | 444 kts | 92° |
| 2026-05-06 20:38 | -9.69471 | 148.14549 | 18565 ft | 446 kts | 92° |
| 2026-05-06 20:38 | -9.69605 | 148.17707 | 18856 ft | 449 kts | 92° |
| 2026-05-06 20:38 | -9.69740 | 148.20873 | 19145 ft | 451 kts | 92° |
| 2026-05-06 20:39 | -9.69878 | 148.24059 | 19422 ft | 453 kts | 92° |
| 2026-05-06 20:39 | -9.70019 | 148.27221 | 19691 ft | 455 kts | 92° |
| 2026-05-06 20:39 | -9.70164 | 148.30478 | 19978 ft | 458 kts | 92° |
| 2026-05-06 20:39 | -9.70305 | 148.33665 | 20259 ft | 460 kts | 92° |
| 2026-05-06 20:40 | -9.70449 | 148.36911 | 20528 ft | 462 kts | 92° |
| 2026-05-06 20:40 | -9.70592 | 148.40176 | 20790 ft | 465 kts | 92° |
| 2026-05-06 20:40 | -9.70734 | 148.43454 | 21057 ft | 467 kts | 92° |
| 2026-05-06 20:40 | -9.70876 | 148.46751 | 21310 ft | 469 kts | 92° |
| 2026-05-06 20:41 | -9.71018 | 148.50063 | 21548 ft | 471 kts | 92° |
| 2026-05-06 20:41 | -9.71159 | 148.53371 | 21876 ft | 470 kts | 92° |
| 2026-05-06 20:41 | -9.71301 | 148.56686 | 22208 ft | 470 kts | 92° |
| 2026-05-06 20:41 | -9.71442 | 148.59993 | 22529 ft | 470 kts | 91° |
| 2026-05-06 20:42 | -9.71579 | 148.63305 | 22861 ft | 470 kts | 91° |
| 2026-05-06 20:42 | -9.71717 | 148.66616 | 23180 ft | 470 kts | 91° |
| 2026-05-06 20:42 | -9.71858 | 148.69922 | 23507 ft | 470 kts | 91° |
| 2026-05-06 20:42 | -9.72001 | 148.73230 | 23789 ft | 470 kts | 91° |
| 2026-05-06 20:43 | -9.72145 | 148.76537 | 24056 ft | 470 kts | 91° |
| 2026-05-06 20:43 | -9.72288 | 148.79849 | 24338 ft | 470 kts | 91° |
| 2026-05-06 20:43 | -9.72427 | 148.83161 | 24626 ft | 469 kts | 91° |
| 2026-05-06 20:43 | -9.72562 | 148.86434 | 24899 ft | 469 kts | 91° |
| 2026-05-06 20:44 | -9.72698 | 148.89747 | 25192 ft | 469 kts | 91° |
| 2026-05-06 20:44 | -9.72834 | 148.93053 | 25485 ft | 469 kts | 91° |
| 2026-05-06 20:44 | -9.72969 | 148.96352 | 25780 ft | 469 kts | 91° |
| 2026-05-06 20:44 | -9.73104 | 148.99615 | 26086 ft | 469 kts | 91° |
| 2026-05-06 20:45 | -9.73241 | 149.02903 | 26382 ft | 469 kts | 92° |
| 2026-05-06 20:45 | -9.73383 | 149.06223 | 26689 ft | 469 kts | 92° |
| 2026-05-06 20:45 | -9.73522 | 149.09527 | 26991 ft | 469 kts | 92° |
| 2026-05-06 20:45 | -9.73660 | 149.12826 | 27296 ft | 468 kts | 92° |
| 2026-05-06 20:46 | -9.73796 | 149.16127 | 27634 ft | 468 kts | 91° |
| 2026-05-06 20:46 | -9.73930 | 149.19424 | 27940 ft | 468 kts | 91° |
| 2026-05-06 20:46 | -9.74060 | 149.22723 | 28270 ft | 468 kts | 91° |
| 2026-05-06 20:46 | -9.74189 | 149.26028 | 28607 ft | 468 kts | 91° |
| 2026-05-06 20:47 | -9.74321 | 149.29284 | 28931 ft | 468 kts | 92° |
| 2026-05-06 20:47 | -9.74458 | 149.32582 | 29267 ft | 468 kts | 92° |
| 2026-05-06 20:47 | -9.74595 | 149.35877 | 29637 ft | 468 kts | 91° |
| 2026-05-06 20:47 | -9.74732 | 149.39181 | 29967 ft | 468 kts | 92° |
| 2026-05-06 20:48 | -9.74868 | 149.42479 | 30277 ft | 468 kts | 92° |
| 2026-05-06 20:48 | -9.75003 | 149.45773 | 30580 ft | 468 kts | 91° |
| 2026-05-06 20:48 | -9.75134 | 149.49066 | 30880 ft | 467 kts | 91° |
| 2026-05-06 20:48 | -9.75263 | 149.52358 | 31196 ft | 467 kts | 91° |
| 2026-05-06 20:49 | -9.75393 | 149.55645 | 31506 ft | 467 kts | 91° |
| 2026-05-06 20:49 | -9.75521 | 149.58931 | 31831 ft | 467 kts | 91° |
| 2026-05-06 20:49 | -9.75648 | 149.62223 | 32145 ft | 466 kts | 91° |
| 2026-05-06 20:49 | -9.75778 | 149.65506 | 32467 ft | 466 kts | 91° |
| 2026-05-06 20:50 | -9.75909 | 149.68791 | 32793 ft | 466 kts | 91° |
| 2026-05-06 20:50 | -9.76042 | 149.72072 | 33112 ft | 466 kts | 91° |
| 2026-05-06 20:50 | -9.76175 | 149.75347 | 33435 ft | 466 kts | 91° |
| 2026-05-06 20:50 | -9.76306 | 149.78624 | 33752 ft | 465 kts | 91° |
| 2026-05-06 20:51 | -9.76439 | 149.81903 | 34037 ft | 465 kts | 91° |
| 2026-05-06 20:51 | -9.76568 | 149.85174 | 34303 ft | 464 kts | 91° |
| 2026-05-06 20:51 | -9.76651 | 149.87338 | 34480 ft | 464 kts | 91° |
| 2026-05-06 20:51 | -9.76774 | 149.90605 | 34737 ft | 464 kts | 91° |
| 2026-05-06 20:52 | -9.76896 | 149.93875 | 34868 ft | 465 kts | 91° |
| 2026-05-06 20:52 | -9.77146 | 150.00503 | 34900 ft | 477 kts | 91° |
| 2026-05-06 20:53 | -9.77413 | 150.07307 | 34899 ft | 488 kts | 91° |
| 2026-05-06 20:53 | -9.77683 | 150.14224 | 34895 ft | 491 kts | 91° |
| 2026-05-06 20:54 | -9.77954 | 150.21147 | 34900 ft | 491 kts | 91° |
| 2026-05-06 20:54 | -9.78214 | 150.28036 | 34894 ft | 491 kts | 91° |
| 2026-05-06 20:55 | -9.78473 | 150.35001 | 34895 ft | 492 kts | 91° |
| 2026-05-06 20:55 | -9.78725 | 150.41889 | 34905 ft | 492 kts | 91° |
| 2026-05-06 20:56 | -9.78987 | 150.48821 | 34905 ft | 492 kts | 91° |
| 2026-05-06 20:56 | -9.79250 | 150.55764 | 34911 ft | 492 kts | 91° |
| 2026-05-06 20:57 | -9.79510 | 150.62700 | 34908 ft | 492 kts | 91° |
| 2026-05-06 20:57 | -9.79754 | 150.69638 | 34918 ft | 492 kts | 91° |
| 2026-05-06 20:58 | -9.80000 | 150.76577 | 34908 ft | 492 kts | 91° |
| 2026-05-06 20:58 | -9.80254 | 150.83514 | 34916 ft | 493 kts | 91° |
| 2026-05-06 20:59 | -9.80513 | 150.90459 | 34917 ft | 493 kts | 91° |
| 2026-05-06 20:59 | -9.80761 | 150.97399 | 34911 ft | 493 kts | 91° |
| 2026-05-06 21:00 | -9.81004 | 151.04297 | 34911 ft | 493 kts | 91° |
| 2026-05-06 21:00 | -9.81255 | 151.11236 | 34911 ft | 493 kts | 91° |
| 2026-05-06 21:01 | -9.81508 | 151.18196 | 34911 ft | 493 kts | 91° |
| 2026-05-06 21:01 | -9.81749 | 151.25148 | 34913 ft | 493 kts | 91° |
| 2026-05-06 21:02 | -9.81991 | 151.32096 | 34911 ft | 493 kts | 91° |
| 2026-05-06 21:02 | -9.82233 | 151.39044 | 34905 ft | 493 kts | 91° |
| 2026-05-06 21:03 | -9.82464 | 151.45989 | 34903 ft | 493 kts | 91° |
| 2026-05-06 21:03 | -9.82701 | 151.52940 | 34912 ft | 493 kts | 91° |
| 2026-05-06 21:04 | -9.82941 | 151.59888 | 34911 ft | 493 kts | 91° |
| 2026-05-06 21:04 | -9.83173 | 151.66843 | 34912 ft | 493 kts | 91° |
| 2026-05-06 21:05 | -9.83405 | 151.73751 | 34905 ft | 493 kts | 91° |
| 2026-05-06 21:05 | -9.83635 | 151.80704 | 34914 ft | 493 kts | 91° |
| 2026-05-06 21:06 | -9.83873 | 151.87649 | 34909 ft | 493 kts | 91° |
| 2026-05-06 21:06 | -9.84105 | 151.94598 | 34909 ft | 493 kts | 91° |
| 2026-05-06 21:07 | -9.84332 | 152.01559 | 34904 ft | 493 kts | 91° |
| 2026-05-06 21:07 | -9.84558 | 152.08512 | 34912 ft | 493 kts | 91° |
| 2026-05-06 21:08 | -9.84780 | 152.15464 | 34913 ft | 493 kts | 91° |
| 2026-05-06 21:08 | -9.84996 | 152.22375 | 34906 ft | 493 kts | 91° |
| 2026-05-06 21:09 | -9.85220 | 152.29335 | 34906 ft | 493 kts | 91° |
| 2026-05-06 21:09 | -9.85441 | 152.36295 | 34907 ft | 493 kts | 91° |
| 2026-05-06 21:10 | -9.85661 | 152.43238 | 34912 ft | 493 kts | 91° |
| 2026-05-06 21:10 | -9.85881 | 152.50194 | 34911 ft | 493 kts | 91° |
| 2026-05-06 21:11 | -9.86107 | 152.57144 | 34909 ft | 493 kts | 91° |
| 2026-05-06 21:11 | -9.86323 | 152.64051 | 34913 ft | 493 kts | 91° |
| 2026-05-06 21:12 | -9.86530 | 152.71006 | 34909 ft | 493 kts | 91° |
| 2026-05-06 21:12 | -9.86741 | 152.77962 | 34909 ft | 493 kts | 91° |
| 2026-05-06 21:13 | -9.86961 | 152.84927 | 34911 ft | 493 kts | 91° |
| 2026-05-06 21:13 | -9.87174 | 152.91882 | 34911 ft | 493 kts | 91° |
| 2026-05-06 21:14 | -9.87376 | 152.98841 | 34906 ft | 493 kts | 91° |
| 2026-05-06 21:14 | -9.87583 | 153.05808 | 34906 ft | 493 kts | 91° |
| 2026-05-06 21:15 | -9.87791 | 153.12762 | 34908 ft | 493 kts | 91° |
| 2026-05-06 21:15 | -9.87999 | 153.19686 | 34908 ft | 493 kts | 91° |
| 2026-05-06 21:16 | -9.88195 | 153.26655 | 34907 ft | 493 kts | 91° |
| 2026-05-06 21:16 | -9.88392 | 153.33620 | 34908 ft | 493 kts | 91° |
| 2026-05-06 21:17 | -9.88591 | 153.40573 | 34911 ft | 493 kts | 91° |
| 2026-05-06 21:17 | -9.88790 | 153.47532 | 34913 ft | 493 kts | 91° |
| 2026-05-06 21:18 | -9.88988 | 153.54491 | 34915 ft | 493 kts | 91° |
| 2026-05-06 21:18 | -9.89180 | 153.61403 | 34914 ft | 492 kts | 91° |
| 2026-05-06 21:19 | -9.89376 | 153.68337 | 34914 ft | 492 kts | 91° |
| 2026-05-06 21:19 | -9.89574 | 153.75283 | 34910 ft | 492 kts | 91° |
| 2026-05-06 21:20 | -9.89764 | 153.82221 | 34909 ft | 492 kts | 91° |
| 2026-05-06 21:20 | -9.89948 | 153.89158 | 34912 ft | 492 kts | 91° |
| 2026-05-06 21:21 | -9.90133 | 153.96092 | 34909 ft | 492 kts | 91° |
| 2026-05-06 21:21 | -9.90324 | 154.03034 | 34911 ft | 492 kts | 91° |
| 2026-05-06 21:22 | -9.90512 | 154.09921 | 34910 ft | 492 kts | 91° |
| 2026-05-06 21:22 | -9.90693 | 154.16854 | 34910 ft | 492 kts | 91° |
| 2026-05-06 21:23 | -9.90873 | 154.23787 | 34909 ft | 492 kts | 91° |
| 2026-05-06 21:23 | -9.91053 | 154.30721 | 34908 ft | 492 kts | 91° |
| 2026-05-06 21:24 | -9.91230 | 154.37650 | 34910 ft | 492 kts | 91° |
| 2026-05-06 21:24 | -9.91405 | 154.44597 | 34908 ft | 492 kts | 91° |
| 2026-05-06 21:25 | -9.91582 | 154.51530 | 34909 ft | 492 kts | 91° |
| 2026-05-06 21:25 | -9.91754 | 154.58470 | 34908 ft | 492 kts | 91° |
| 2026-05-06 21:26 | -9.91926 | 154.65404 | 34906 ft | 492 kts | 91° |
| 2026-05-06 21:26 | -9.92101 | 154.72298 | 34906 ft | 492 kts | 91° |
| 2026-05-06 21:27 | -9.92283 | 154.79227 | 34904 ft | 492 kts | 91° |
| 2026-05-06 21:27 | -9.92454 | 154.86165 | 34906 ft | 492 kts | 91° |
| 2026-05-06 21:28 | -9.92618 | 154.93101 | 34905 ft | 492 kts | 91° |
| 2026-05-06 21:28 | -9.92742 | 155.00031 | 34906 ft | 491 kts | 87° |
| 2026-05-06 21:29 | -9.92149 | 155.06935 | 34906 ft | 491 kts | 84° |
| 2026-05-06 21:29 | -9.91521 | 155.13839 | 34907 ft | 491 kts | 84° |
| 2026-05-06 21:30 | -9.90902 | 155.20733 | 34904 ft | 491 kts | 84° |
| 2026-05-06 21:30 | -9.90276 | 155.27627 | 34906 ft | 491 kts | 84° |
| 2026-05-06 21:31 | -9.89648 | 155.34524 | 34907 ft | 491 kts | 84° |
| 2026-05-06 21:31 | -9.89017 | 155.41422 | 34906 ft | 491 kts | 84° |
| 2026-05-06 21:32 | -9.88388 | 155.48277 | 34905 ft | 491 kts | 84° |
| 2026-05-06 21:32 | -9.87436 | 155.58696 | 34920 ft | 496 kts | 84° |
| 2026-05-06 21:33 | -9.86801 | 155.65643 | 34919 ft | 494 kts | 84° |
| 2026-05-06 21:33 | -9.86161 | 155.72575 | 34916 ft | 493 kts | 84° |
| 2026-05-06 21:34 | -9.85521 | 155.79487 | 34918 ft | 492 kts | 84° |
| 2026-05-06 21:34 | -9.84873 | 155.86387 | 34914 ft | 491 kts | 84° |
| 2026-05-06 21:35 | -9.84228 | 155.93287 | 34912 ft | 491 kts | 84° |
| 2026-05-06 21:35 | -9.83697 | 155.99022 | 34911 ft | 491 kts | 84° |
| 2026-05-06 21:36 | -9.83052 | 156.05913 | 34911 ft | 491 kts | 84° |
| 2026-05-06 21:36 | -9.82413 | 156.12806 | 34911 ft | 490 kts | 84° |
| 2026-05-06 21:37 | -9.81773 | 156.19691 | 34909 ft | 490 kts | 84° |
| 2026-05-06 21:37 | -9.81125 | 156.26571 | 34909 ft | 490 kts | 84° |
| 2026-05-06 21:38 | -9.80474 | 156.33453 | 34911 ft | 490 kts | 84° |
| 2026-05-06 21:38 | -9.79827 | 156.40332 | 34910 ft | 490 kts | 84° |
| 2026-05-06 21:39 | -9.79179 | 156.47179 | 34910 ft | 490 kts | 84° |
| 2026-05-06 21:39 | -9.78526 | 156.54054 | 34909 ft | 490 kts | 84° |
| 2026-05-06 21:40 | -9.77874 | 156.60932 | 34911 ft | 490 kts | 84° |
| 2026-05-06 21:40 | -9.77223 | 156.67805 | 34911 ft | 490 kts | 84° |
| 2026-05-06 21:41 | -9.76570 | 156.74678 | 34911 ft | 489 kts | 84° |
| 2026-05-06 21:41 | -9.75913 | 156.81547 | 34911 ft | 489 kts | 84° |
| 2026-05-06 21:42 | -9.75251 | 156.88412 | 34909 ft | 489 kts | 84° |
| 2026-05-06 21:42 | -9.74589 | 156.95284 | 34906 ft | 489 kts | 84° |
| 2026-05-06 21:43 | -9.73930 | 157.02149 | 34910 ft | 489 kts | 84° |
| 2026-05-06 21:43 | -9.73269 | 157.08994 | 34912 ft | 488 kts | 84° |
| 2026-05-06 21:44 | -9.72614 | 157.15844 | 34913 ft | 488 kts | 84° |
| 2026-05-06 21:44 | -9.71958 | 157.22681 | 34915 ft | 487 kts | 84° |
| 2026-05-06 21:45 | -9.71293 | 157.29522 | 34913 ft | 488 kts | 84° |
| 2026-05-06 21:45 | -9.70632 | 157.36312 | 34909 ft | 488 kts | 84° |
| 2026-05-06 21:46 | -9.69960 | 157.43162 | 34907 ft | 487 kts | 84° |
| 2026-05-06 21:46 | -9.69295 | 157.49997 | 34905 ft | 487 kts | 84° |
| 2026-05-06 21:47 | -9.68622 | 157.56838 | 34904 ft | 488 kts | 84° |
| 2026-05-06 21:47 | -9.67954 | 157.63675 | 34902 ft | 488 kts | 84° |
| 2026-05-06 21:48 | -9.67281 | 157.70518 | 34905 ft | 488 kts | 84° |
| 2026-05-06 21:48 | -9.66607 | 157.77371 | 34907 ft | 489 kts | 84° |
| 2026-05-06 21:49 | -9.65935 | 157.84226 | 34912 ft | 489 kts | 84° |
| 2026-05-06 21:49 | -9.65260 | 157.91080 | 34910 ft | 489 kts | 84° |
| 2026-05-06 21:50 | -9.64576 | 157.97941 | 34905 ft | 489 kts | 84° |
| 2026-05-06 21:50 | -9.63895 | 158.04804 | 34906 ft | 490 kts | 84° |
| 2026-05-06 21:51 | -9.63211 | 158.11668 | 34907 ft | 490 kts | 84° |
| 2026-05-06 21:51 | -9.62525 | 158.18542 | 34908 ft | 490 kts | 84° |
| 2026-05-06 21:52 | -9.62181 | 158.21979 | 34768 ft | 490 kts | 84° |
| 2026-05-06 21:52 | -9.61836 | 158.25415 | 34540 ft | 490 kts | 84° |
| 2026-05-06 21:52 | -9.61498 | 158.28811 | 34317 ft | 491 kts | 84° |
| 2026-05-06 21:52 | -9.61153 | 158.32295 | 34091 ft | 491 kts | 84° |
| 2026-05-06 21:53 | -9.60809 | 158.35739 | 33866 ft | 492 kts | 84° |
| 2026-05-06 21:53 | -9.60509 | 158.39147 | 33614 ft | 492 kts | 86° |
| 2026-05-06 21:53 | -9.60274 | 158.42611 | 33363 ft | 493 kts | 87° |
| 2026-05-06 21:53 | -9.60087 | 158.46079 | 33111 ft | 493 kts | 88° |
| 2026-05-06 21:54 | -9.59923 | 158.49547 | 32857 ft | 493 kts | 88° |
| 2026-05-06 21:54 | -9.59758 | 158.53013 | 32610 ft | 492 kts | 88° |
| 2026-05-06 21:54 | -9.59578 | 158.56478 | 32365 ft | 493 kts | 87° |
| 2026-05-06 21:54 | -9.59381 | 158.59947 | 32124 ft | 492 kts | 87° |
| 2026-05-06 21:55 | -9.59171 | 158.63411 | 31250 ft | 496 kts | 87° |
| 2026-05-06 21:55 | -9.58952 | 158.66917 | 30468 ft | 497 kts | 87° |
| 2026-05-06 21:55 | -9.58732 | 158.70396 | 29788 ft | 493 kts | 87° |
| 2026-05-06 21:55 | -9.58518 | 158.73858 | 28863 ft | 492 kts | 87° |
| 2026-05-06 21:56 | -9.58306 | 158.77322 | 27890 ft | 493 kts | 87° |
| 2026-05-06 21:56 | -9.58098 | 158.80795 | 26908 ft | 493 kts | 86° |
| 2026-05-06 21:56 | -9.57890 | 158.84263 | 25890 ft | 494 kts | 86° |
| 2026-05-06 21:56 | -9.57680 | 158.87743 | 24894 ft | 494 kts | 86° |
| 2026-05-06 21:57 | -9.57469 | 158.91218 | 23990 ft | 492 kts | 86° |
| 2026-05-06 21:57 | -9.57261 | 158.94648 | 23291 ft | 484 kts | 86° |
| 2026-05-06 21:57 | -9.57056 | 158.98036 | 22399 ft | 478 kts | 86° |
| 2026-05-06 21:57 | -9.56854 | 159.01373 | 21555 ft | 471 kts | 86° |
| 2026-05-06 21:58 | -9.56651 | 159.04664 | 20691 ft | 465 kts | 86° |
| 2026-05-06 21:58 | -9.56454 | 159.07881 | 19877 ft | 460 kts | 85° |
| 2026-05-06 21:58 | -9.56258 | 159.11092 | 19111 ft | 455 kts | 85° |
| 2026-05-06 21:58 | -9.56058 | 159.14278 | 18333 ft | 450 kts | 85° |
| 2026-05-06 21:59 | -9.55861 | 159.17421 | 17492 ft | 445 kts | 85° |
| 2026-05-06 21:59 | -9.55668 | 159.20535 | 16604 ft | 441 kts | 86° |
| 2026-05-06 21:59 | -9.55481 | 159.23609 | 15794 ft | 435 kts | 86° |
| 2026-05-06 21:59 | -9.55293 | 159.26653 | 14997 ft | 431 kts | 86° |
| 2026-05-06 22:00 | -9.55102 | 159.29671 | 14205 ft | 425 kts | 86° |
| 2026-05-06 22:00 | -9.54914 | 159.32615 | 13137 ft | 413 kts | 86° |
| 2026-05-06 22:00 | -9.54739 | 159.35421 | 12750 ft | 384 kts | 86° |
| 2026-05-06 22:00 | -9.54582 | 159.38012 | 12561 ft | 354 kts | 86° |
| 2026-05-06 22:01 | -9.54438 | 159.40402 | 12438 ft | 327 kts | 86° |
| 2026-05-06 22:01 | -9.54303 | 159.42632 | 12152 ft | 310 kts | 86° |
| 2026-05-06 22:01 | -9.54172 | 159.44790 | 11644 ft | 303 kts | 86° |
| 2026-05-06 22:01 | -9.54039 | 159.46911 | 11064 ft | 300 kts | 86° |
| 2026-05-06 22:02 | -9.53905 | 159.49008 | 10486 ft | 297 kts | 86° |
| 2026-05-06 22:02 | -9.53772 | 159.51080 | 9998 ft | 291 kts | 86° |
| 2026-05-06 22:02 | -9.53646 | 159.53100 | 9816 ft | 287 kts | 86° |
| 2026-05-06 22:02 | -9.53521 | 159.55126 | 9697 ft | 288 kts | 86° |
| 2026-05-06 22:03 | -9.53396 | 159.57152 | 9568 ft | 288 kts | 86° |
| 2026-05-06 22:03 | -9.53269 | 159.59175 | 9371 ft | 288 kts | 86° |
| 2026-05-06 22:03 | -9.53139 | 159.61205 | 9024 ft | 289 kts | 86° |
| 2026-05-06 22:03 | -9.53019 | 159.63237 | 8662 ft | 288 kts | 87° |
| 2026-05-06 22:04 | -9.52911 | 159.65226 | 8345 ft | 286 kts | 87° |
| 2026-05-06 22:04 | -9.52806 | 159.67238 | 8056 ft | 284 kts | 87° |
| 2026-05-06 22:04 | -9.52702 | 159.69232 | 7690 ft | 285 kts | 87° |
| 2026-05-06 22:04 | -9.52595 | 159.71253 | 7217 ft | 288 kts | 87° |
| 2026-05-06 22:05 | -9.52488 | 159.73286 | 6795 ft | 289 kts | 87° |
| 2026-05-06 22:05 | -9.52378 | 159.75323 | 6417 ft | 289 kts | 87° |
| 2026-05-06 22:05 | -9.52266 | 159.77357 | 6020 ft | 288 kts | 87° |
| 2026-05-06 22:05 | -9.52155 | 159.79382 | 5636 ft | 288 kts | 87° |
| 2026-05-06 22:06 | -9.52043 | 159.81404 | 5257 ft | 287 kts | 87° |
| 2026-05-06 22:06 | -9.51680 | 159.83381 | 4872 ft | 285 kts | 70° |
| 2026-05-06 22:06 | -9.50962 | 159.85215 | 4467 ft | 275 kts | 69° |
| 2026-05-06 22:06 | -9.50253 | 159.86975 | 4094 ft | 264 kts | 69° |
| 2026-05-06 22:07 | -9.49569 | 159.88668 | 3739 ft | 255 kts | 69° |
| 2026-05-06 22:07 | -9.48913 | 159.90290 | 3498 ft | 241 kts | 70° |
| 2026-05-06 22:07 | -9.48283 | 159.91844 | 3097 ft | 236 kts | 70° |
| 2026-05-06 22:07 | -9.47674 | 159.93357 | 2741 ft | 229 kts | 70° |
| 2026-05-06 22:08 | -9.47082 | 159.94830 | 2397 ft | 221 kts | 70° |
| 2026-05-06 22:08 | -9.46532 | 159.96198 | 2070 ft | 204 kts | 70° |
| 2026-05-06 22:08 | -9.46024 | 159.97460 | 1782 ft | 183 kts | 70° |
| 2026-05-06 22:08 | -9.45566 | 159.98601 | 1513 ft | 167 kts | 70° |
| 2026-05-06 22:09 | -9.45155 | 159.99625 | 1259 ft | 150 kts | 70° |
| 2026-05-06 22:09 | -9.44768 | 160.00583 | 1038 ft | 145 kts | 69° |
| 2026-05-06 22:09 | -9.44386 | 160.01514 | 775 ft | 141 kts | 70° |
| 2026-05-06 22:09 | -9.44021 | 160.02435 | 584 ft | 142 kts | 68° |
| 2026-05-06 22:10 | -9.43635 | 160.03367 | 374 ft | 144 kts | 70° |
| 2026-05-06 22:10 | -9.43272 | 160.04324 | 99 ft | 145 kts | 68° |
| 2026-05-06 22:10 | -9.42917 | 160.05227 | 30 ft | 122 kts | 67° |
| 2026-05-06 22:10 | -9.42697 | 160.05759 | 27 ft | 58 kts | 68° |
| 2026-05-06 22:11 | -9.42553 | 160.06127 | 30 ft | 56 kts | 68° |
| 2026-05-06 22:11 | -9.42448 | 160.06319 | 34 ft | 7 kts | 21° |
| 2026-05-06 22:11 | -9.42452 | 160.06328 | 31 ft | 3 kts | 203° |
| 2026-05-06 22:11 | -9.42494 | 160.06267 | 32 ft | 16 kts | 248° |
| 2026-05-06 22:12 | -9.42559 | 160.06109 | 30 ft | 35 kts | 247° |
| 2026-05-06 22:12 | -9.42659 | 160.05864 | 28 ft | 39 kts | 248° |
| 2026-05-06 22:12 | -9.42761 | 160.05607 | 29 ft | 39 kts | 248° |
| 2026-05-06 22:12 | -9.42868 | 160.05336 | 32 ft | 46 kts | 248° |
| 2026-05-06 22:13 | -9.42990 | 160.05022 | 26 ft | 48 kts | 248° |
| 2026-05-06 22:13 | -9.43106 | 160.04736 | 24 ft | 41 kts | 247° |
| 2026-05-06 22:13 | -9.43136 | 160.04569 | 27 ft | 15 kts | 309° |
| 2026-05-06 22:13 | -9.43036 | 160.04526 | 27 ft | 17 kts | 335° |
| 2026-05-06 22:14 | -9.42930 | 160.04508 | 27 ft | 16 kts | 32° |
| 2026-05-06 22:14 | -9.42862 | 160.04585 | 27 ft | 13 kts | 9° |
| 2026-05-06 22:14 | -9.42832 | 160.04550 | 28 ft | 0 kts | 291° |
| 2026-05-06 22:14 | -9.42831 | 160.04550 | 28 ft | 0 kts | 298° |
| 2026-05-06 22:17 | -9.42844 | 160.04536 | 28 ft | 0 kts | 26° |